createdAt,value
2022-08-22T00:01:19.239Z,2.80
2022-08-22T00:02:48.149Z,2.50
2022-08-22T00:02:58.681Z,3.30
2022-08-22T00:03:01.117Z,2.50
2022-08-22T00:03:04.030Z,2.30
2022-08-22T00:05:10.583Z,2.90
2022-08-22T00:06:56.460Z,3.23
2022-08-22T00:08:49.736Z,3.13
2022-08-22T00:10:35.124Z,3.07
2022-08-22T00:12:16.047Z,2.97
2022-08-22T00:14:12.759Z,2.83
2022-08-22T00:16:18.594Z,3.23
2022-08-22T00:18:13.743Z,3.20
2022-08-22T00:20:06.271Z,2.70
2022-08-22T00:21:41.005Z,3.30
2022-08-22T00:23:37.516Z,3.47
2022-08-22T00:25:27.018Z,3.40
2022-08-22T00:27:04.265Z,3.43
2022-08-22T00:28:49.207Z,3.03
2022-08-22T00:30:21.600Z,2.93
2022-08-22T00:32:07.954Z,2.93
2022-08-22T00:33:47.030Z,3.50
2022-08-22T00:35:42.922Z,2.80
2022-08-22T00:37:37.137Z,2.97
2022-08-22T00:39:15.044Z,3.17
2022-08-22T00:41:10.688Z,3.17
2022-08-22T00:42:57.308Z,3.27
2022-08-22T00:44:43.766Z,2.67
2022-08-22T00:46:20.218Z,3.17
2022-08-22T00:48:05.474Z,2.93
2022-08-22T00:49:43.063Z,3.00
2022-08-22T00:51:33.254Z,2.90
2022-08-22T00:53:25.929Z,3.57
2022-08-22T00:55:13.622Z,3.30
2022-08-22T00:57:22.579Z,3.80
2022-08-22T00:59:00.449Z,2.90
2022-08-22T01:00:55.544Z,3.40
2022-08-22T01:02:33.251Z,2.80
2022-08-22T01:04:38.382Z,3.37
2022-08-22T01:06:39.784Z,3.47
2022-08-22T01:08:26.892Z,3.10
2022-08-22T01:10:21.303Z,3.13
2022-08-22T01:12:02.360Z,3.47
2022-08-22T01:14:12.083Z,2.70
2022-08-22T01:15:46.150Z,3.00
2022-08-22T01:17:27.048Z,3.40
2022-08-22T01:19:31.781Z,3.13
2022-08-22T01:21:24.331Z,3.00
2022-08-22T01:23:24.265Z,3.60
2022-08-22T01:25:33.776Z,4.03
2022-08-22T01:27:47.584Z,3.90
2022-08-22T01:29:56.073Z,3.20
2022-08-22T01:31:49.616Z,3.33
2022-08-22T01:33:54.937Z,3.53
2022-08-22T01:35:50.343Z,3.80
2022-08-22T01:37:49.827Z,3.40
2022-08-22T01:40:07.413Z,3.87
2022-08-22T01:42:08.827Z,3.70
2022-08-22T01:44:01.601Z,4.33
2022-08-22T01:46:01.423Z,3.70
2022-08-22T01:47:54.422Z,3.67
2022-08-22T01:49:44.112Z,3.97
2022-08-22T01:51:21.997Z,4.43
2022-08-22T01:53:11.245Z,4.37
2022-08-22T01:54:49.493Z,3.90
2022-08-22T01:56:26.041Z,3.70
2022-08-22T01:58:01.533Z,3.50
2022-08-22T01:59:52.917Z,4.23
2022-08-22T02:01:37.805Z,4.30
2022-08-22T02:03:30.717Z,3.80
2022-08-22T02:05:14.230Z,4.27
2022-08-22T02:07:14.107Z,4.10
2022-08-22T02:09:16.764Z,3.57
2022-08-22T02:11:03.619Z,3.90
2022-08-22T02:12:41.676Z,4.00
2022-08-22T02:14:32.688Z,3.67
2022-08-22T02:16:27.472Z,4.03
2022-08-22T02:18:12.234Z,3.43
2022-08-22T02:20:02.073Z,4.17
2022-08-22T02:22:06.980Z,4.03
2022-08-22T02:24:04.325Z,3.73
2022-08-22T02:25:56.447Z,4.40
2022-08-22T02:27:38.874Z,4.00
2022-08-22T02:29:16.825Z,3.93
2022-08-22T02:31:10.279Z,3.80
2022-08-22T02:33:22.833Z,3.80
2022-08-22T02:35:06.573Z,3.60
2022-08-22T02:36:46.619Z,4.07
2022-08-22T02:38:39.250Z,3.40
2022-08-22T02:40:30.307Z,3.43
2022-08-22T02:42:17.844Z,4.00
2022-08-22T02:44:04.206Z,3.67
2022-08-22T02:45:56.058Z,3.93
2022-08-22T02:47:40.116Z,3.30
2022-08-22T02:49:27.377Z,3.30
2022-08-22T02:51:15.546Z,3.70
2022-08-22T02:53:06.072Z,3.67
2022-08-22T02:54:50.686Z,3.63
2022-08-22T02:56:39.783Z,3.70
2022-08-22T02:58:26.379Z,4.20
2022-08-22T03:00:32.025Z,3.90
2022-08-22T03:02:46.575Z,4.73
2022-08-22T03:04:24.171Z,3.87
2022-08-22T03:06:05.323Z,3.73
2022-08-22T03:07:43.799Z,3.90
2022-08-22T03:09:15.444Z,3.73
2022-08-22T03:11:38.363Z,3.40
2022-08-22T03:13:18.698Z,3.57
2022-08-22T03:15:09.954Z,3.40
2022-08-22T03:17:08.019Z,3.30
2022-08-22T03:19:08.398Z,3.30
2022-08-22T03:21:09.295Z,3.57
2022-08-22T03:22:59.912Z,3.70
2022-08-22T03:24:53.207Z,4.20
2022-08-22T03:26:44.976Z,4.37
2022-08-22T03:28:58.911Z,4.37
2022-08-22T03:30:43.843Z,3.37
2022-08-22T03:32:20.155Z,3.37
2022-08-22T03:34:18.070Z,3.50
2022-08-22T03:35:49.880Z,3.80
2022-08-22T03:37:31.767Z,3.70
2022-08-22T03:39:22.735Z,4.47
2022-08-22T03:41:19.676Z,4.17
2022-08-22T03:43:06.549Z,4.10
2022-08-22T03:45:12.359Z,3.93
2022-08-22T03:47:18.094Z,4.27
2022-08-22T03:49:19.437Z,4.23
2022-08-22T03:50:57.031Z,4.30
2022-08-22T03:53:18.877Z,4.23
2022-08-22T03:55:00.545Z,3.93
2022-08-22T03:57:06.268Z,5.17
2022-08-22T03:58:52.787Z,4.33
2022-08-22T04:01:02.474Z,4.90
2022-08-22T04:02:58.883Z,4.63
2022-08-22T04:04:48.570Z,5.13
2022-08-22T04:06:44.247Z,4.10
2022-08-22T04:08:55.457Z,4.30
2022-08-22T04:10:33.475Z,4.87
2022-08-22T04:12:45.045Z,4.40
2022-08-22T04:14:25.464Z,4.97
2022-08-22T04:16:31.154Z,4.70
2022-08-22T04:18:37.803Z,4.90
2022-08-22T04:20:41.825Z,4.10
2022-08-22T04:22:50.935Z,4.50
2022-08-22T04:24:41.045Z,4.80
2022-08-22T04:26:32.996Z,4.53
2022-08-22T04:28:19.471Z,5.00
2022-08-22T04:30:12.933Z,4.83
2022-08-22T04:31:52.413Z,4.97
2022-08-22T04:33:30.323Z,4.37
2022-08-22T04:35:17.070Z,4.57
2022-08-22T04:37:06.494Z,5.20
2022-08-22T04:39:04.145Z,5.30
2022-08-22T04:40:51.924Z,5.47
2022-08-22T04:42:33.418Z,5.13
2022-08-22T04:44:13.436Z,5.00
2022-08-22T04:46:11.211Z,5.27
2022-08-22T04:47:56.857Z,5.00
2022-08-22T04:49:45.931Z,5.30
2022-08-22T04:51:27.435Z,5.33
2022-08-22T04:53:23.076Z,5.10
2022-08-22T04:55:31.751Z,5.20
2022-08-22T04:57:24.167Z,5.10
2022-08-22T04:59:04.685Z,5.60
2022-08-22T05:00:56.933Z,5.83
2022-08-22T05:02:28.764Z,5.57
2022-08-22T05:04:05.468Z,5.23
2022-08-22T05:05:39.967Z,5.23
2022-08-22T05:07:14.523Z,5.40
2022-08-22T05:08:48.447Z,5.40
2022-08-22T05:10:26.982Z,6.40
2022-08-22T05:12:07.218Z,5.10
2022-08-22T05:13:44.711Z,5.57
2022-08-22T05:15:24.333Z,5.50
2022-08-22T05:17:00.201Z,5.63
2022-08-22T05:18:52.932Z,5.70
2022-08-22T05:20:27.833Z,5.20
2022-08-22T05:22:00.831Z,5.13
2022-08-22T05:23:44.732Z,5.80
2022-08-22T05:25:21.676Z,5.87
2022-08-22T05:26:57.243Z,5.40
2022-08-22T05:28:39.072Z,5.40
2022-08-22T05:30:24.225Z,5.77
2022-08-22T05:32:01.924Z,5.00
2022-08-22T05:33:39.110Z,6.10
2022-08-22T05:35:11.460Z,6.80
2022-08-22T05:36:54.995Z,5.90
2022-08-22T05:38:33.532Z,6.10
2022-08-22T05:40:07.157Z,5.83
2022-08-22T05:41:40.876Z,6.13
2022-08-22T05:43:13.179Z,5.80
2022-08-22T05:44:44.922Z,5.93
2022-08-22T05:46:41.438Z,5.80
2022-08-22T05:48:20.451Z,5.43
2022-08-22T05:49:59.083Z,5.57
2022-08-22T05:51:44.429Z,5.83
2022-08-22T05:53:24.767Z,5.50
2022-08-22T05:55:03.377Z,6.03
2022-08-22T05:56:41.808Z,5.53
2022-08-22T05:58:45.952Z,5.87
2022-08-22T06:00:22.399Z,4.87
2022-08-22T06:02:06.465Z,5.83
2022-08-22T06:03:47.778Z,5.83
2022-08-22T06:05:27.489Z,5.80
2022-08-22T06:07:09.317Z,5.90
2022-08-22T06:08:51.133Z,5.17
2022-08-22T06:10:37.334Z,5.93
2022-08-22T06:12:32.110Z,5.73
2022-08-22T06:14:44.437Z,5.67
2022-08-22T06:16:34.412Z,6.00
2022-08-22T06:18:11.613Z,5.87
2022-08-22T06:19:49.478Z,6.00
2022-08-22T06:21:37.660Z,5.97
2022-08-22T06:23:17.139Z,5.50
2022-08-22T06:24:51.499Z,5.93
2022-08-22T06:26:28.323Z,6.20
2022-08-22T06:28:07.379Z,6.60
2022-08-22T06:29:51.092Z,5.90
2022-08-22T06:31:29.822Z,5.77
2022-08-22T06:33:06.101Z,5.73
2022-08-22T06:34:42.258Z,5.63
2022-08-22T06:36:30.737Z,5.70
2022-08-22T06:38:03.662Z,6.10
2022-08-22T06:39:39.257Z,6.60
2022-08-22T06:41:11.066Z,6.20
2022-08-22T06:42:50.614Z,6.17
2022-08-22T06:44:33.867Z,5.90
2022-08-22T06:46:06.597Z,6.30
2022-08-22T06:48:12.501Z,6.30
2022-08-22T06:49:45.600Z,5.47
2022-08-22T06:51:20.141Z,6.00
2022-08-22T06:53:00.206Z,6.73
2022-08-22T06:54:36.314Z,5.37
2022-08-22T06:56:09.914Z,5.50
2022-08-22T06:57:57.488Z,5.50
2022-08-22T06:59:31.518Z,5.40
2022-08-22T07:01:11.729Z,5.77
2022-08-22T07:02:48.037Z,6.00
2022-08-22T07:04:26.504Z,6.03
2022-08-22T07:05:59.244Z,5.90
2022-08-22T07:07:31.369Z,6.37
2022-08-22T07:09:06.757Z,5.93
2022-08-22T07:10:49.423Z,6.00
2022-08-22T07:12:26.631Z,5.90
2022-08-22T07:14:11.455Z,6.30
2022-08-22T07:15:43.639Z,5.83
2022-08-22T07:17:28.463Z,6.30
2022-08-22T07:19:01.149Z,6.30
2022-08-22T07:20:45.582Z,5.80
2022-08-22T07:22:28.611Z,6.70
2022-08-22T07:24:01.224Z,5.60
2022-08-22T07:25:46.387Z,5.33
2022-08-22T07:27:33.500Z,5.70
2022-08-22T07:29:44.197Z,5.47
2022-08-22T07:31:43.137Z,7.27
2022-08-22T07:33:51.539Z,5.97
2022-08-22T07:35:36.627Z,5.80
2022-08-22T07:37:46.459Z,6.30
2022-08-22T07:39:37.011Z,6.07
2022-08-22T07:41:24.295Z,6.20
2022-08-22T07:43:01.691Z,5.80
2022-08-22T07:44:44.924Z,6.13
2022-08-22T07:46:38.197Z,5.63
2022-08-22T07:48:33.336Z,5.13
2022-08-22T07:50:13.151Z,6.13
2022-08-22T07:52:01.727Z,5.60
2022-08-22T07:53:41.900Z,5.30
2022-08-22T07:55:25.132Z,5.77
2022-08-22T07:57:02.733Z,5.97
2022-08-22T07:58:39.478Z,5.33
2022-08-22T08:00:19.789Z,5.90
2022-08-22T08:01:54.482Z,6.47
2022-08-22T08:03:31.432Z,6.87
2022-08-22T08:05:03.988Z,6.10
2022-08-22T08:06:36.549Z,6.40
2022-08-22T08:08:25.398Z,6.20
2022-08-22T08:10:13.115Z,6.10
2022-08-22T08:11:45.299Z,5.50
2022-08-22T08:13:24.481Z,6.23
2022-08-22T08:14:57.182Z,7.33
2022-08-22T08:16:34.392Z,7.00
2022-08-22T08:18:12.062Z,5.80
2022-08-22T08:19:45.445Z,6.40
2022-08-22T08:21:51.048Z,6.30
2022-08-22T08:23:24.978Z,6.23
2022-08-22T08:24:58.989Z,6.00
2022-08-22T08:26:35.485Z,6.20
2022-08-22T08:28:36.377Z,6.53
2022-08-22T08:30:21.955Z,6.63
2022-08-22T08:31:54.225Z,5.90
2022-08-22T08:33:28.143Z,6.30
2022-08-22T08:35:23.700Z,6.27
2022-08-22T08:37:02.249Z,5.00
2022-08-22T08:39:00.722Z,6.10
2022-08-22T08:40:32.698Z,5.50
2022-08-22T08:42:13.430Z,4.83
2022-08-22T08:44:07.736Z,5.23
2022-08-22T08:45:51.596Z,6.30
2022-08-22T08:47:59.704Z,4.50
2022-08-22T08:49:59.569Z,4.60
2022-08-22T08:51:50.404Z,6.07
2022-08-22T08:53:36.637Z,5.07
2022-08-22T08:57:58.935Z,5.00
2022-08-22T09:00:10.047Z,4.00
2022-08-22T09:02:23.518Z,4.30
2022-08-22T09:04:21.865Z,3.67
2022-08-22T09:06:02.339Z,3.90
2022-08-22T09:07:44.369Z,3.40
2022-08-22T09:09:41.113Z,3.20
2022-08-22T09:11:31.026Z,3.67
2022-08-22T09:13:24.411Z,3.00
2022-08-22T09:15:21.220Z,3.27
2022-08-22T09:17:12.467Z,3.40
2022-08-22T09:19:11.877Z,2.80
2022-08-22T09:21:10.098Z,2.40
2022-08-22T09:23:13.784Z,2.50
2022-08-22T09:24:48.510Z,3.00
2022-08-22T09:26:48.026Z,2.60
2022-08-22T09:28:39.007Z,2.60
2022-08-22T09:30:17.920Z,2.90
2022-08-22T09:32:13.196Z,2.63
2022-08-22T09:34:16.492Z,2.63
2022-08-22T09:35:58.757Z,2.40
2022-08-22T09:37:38.851Z,2.73
2022-08-22T09:39:31.390Z,2.50
2022-08-22T09:40:15.240Z,4.73
2022-08-22T09:41:24.506Z,2.30
2022-08-22T09:43:11.021Z,2.53
2022-08-22T09:45:28.985Z,2.83
2022-08-22T09:47:25.553Z,2.77
2022-08-22T09:49:23.378Z,2.70
2022-08-22T09:51:31.199Z,3.07
2022-08-22T09:53:43.662Z,2.90
2022-08-22T09:55:54.503Z,3.10
2022-08-22T09:57:42.838Z,3.30
2022-08-22T09:59:21.081Z,3.60
2022-08-22T10:01:12.065Z,3.27
2022-08-22T10:03:11.186Z,2.57
2022-08-22T10:05:06.526Z,3.20
2022-08-22T10:07:01.373Z,2.77
2022-08-22T10:08:45.839Z,3.77
2022-08-22T10:10:42.254Z,3.30
2022-08-22T10:12:28.406Z,3.27
2022-08-22T10:14:22.197Z,3.40
2022-08-22T10:16:21.288Z,3.70
2022-08-22T10:18:26.179Z,2.47
2022-08-22T10:20:11.298Z,2.73
2022-08-22T10:22:30.210Z,3.13
2022-08-22T10:24:25.260Z,2.93
2022-08-22T10:26:26.753Z,3.33
2022-08-22T10:28:16.911Z,2.70
2022-08-22T10:30:13.153Z,2.77
2022-08-22T10:31:58.749Z,3.57
2022-08-22T10:34:00.503Z,2.87
2022-08-22T10:35:37.559Z,3.00
2022-08-22T10:37:39.516Z,2.57
2022-08-22T10:39:22.537Z,2.87
2022-08-22T10:41:00.456Z,3.07
2022-08-22T10:42:38.622Z,3.07
2022-08-22T10:44:18.942Z,2.73
2022-08-22T10:46:02.383Z,2.30
2022-08-22T10:47:45.926Z,2.57
2022-08-22T10:49:44.663Z,3.00
2022-08-22T10:51:36.716Z,2.33
2022-08-22T10:53:30.166Z,2.60
2022-08-22T10:55:25.051Z,2.70
2022-08-22T10:57:06.644Z,2.67
2022-08-22T10:58:56.063Z,2.37
2022-08-22T11:00:45.979Z,2.50
2022-08-22T11:02:36.124Z,2.60
2022-08-22T11:04:28.659Z,2.40
2022-08-22T11:06:15.127Z,2.53
2022-08-22T11:08:12.835Z,2.37
2022-08-22T11:09:50.339Z,2.97
2022-08-22T11:11:34.573Z,2.40
2022-08-22T11:13:38.235Z,2.40
2022-08-22T11:15:58.426Z,2.50
2022-08-22T11:17:54.084Z,2.80
2022-08-22T11:19:42.812Z,2.77
2022-08-22T11:21:53.733Z,2.50
2022-08-22T11:23:55.447Z,2.50
2022-08-22T11:26:13.309Z,2.73
2022-08-22T11:27:50.985Z,2.83
2022-08-22T11:29:34.514Z,2.50
2022-08-22T11:31:16.149Z,3.10
2022-08-22T11:32:59.580Z,2.43
2022-08-22T11:34:31.472Z,2.90
2022-08-22T11:36:50.894Z,2.63
2022-08-22T11:38:24.259Z,3.10
2022-08-22T11:40:25.351Z,3.20
2022-08-22T11:42:31.882Z,2.83
2022-08-22T11:44:17.041Z,2.57
2022-08-22T11:45:53.505Z,2.70
2022-08-22T11:47:42.325Z,2.83
2022-08-22T11:49:31.613Z,2.80
2022-08-22T11:51:24.917Z,3.50
2022-08-22T11:53:11.874Z,2.50
2022-08-22T11:55:15.368Z,3.43
2022-08-22T11:56:54.713Z,2.83
2022-08-22T11:58:51.043Z,2.73
2022-08-22T12:00:47.675Z,2.60
2022-08-22T12:02:31.163Z,2.73
2022-08-22T12:04:42.654Z,2.13
2022-08-22T12:06:40.874Z,3.13
2022-08-22T12:08:31.831Z,2.40
2022-08-22T12:10:32.264Z,2.87
2022-08-22T12:12:21.784Z,2.77
2022-08-22T12:14:19.535Z,2.87
2022-08-22T12:16:13.059Z,2.63
2022-08-22T12:18:03.072Z,2.50
2022-08-22T12:20:14.632Z,2.50
2022-08-22T12:22:00.532Z,2.77
2022-08-22T12:23:53.878Z,3.03
2022-08-22T12:25:44.695Z,2.50
2022-08-22T12:27:29.465Z,2.73
2022-08-22T12:29:16.805Z,2.60
2022-08-22T12:31:09.663Z,2.50
2022-08-22T12:32:43.920Z,3.23
2022-08-22T12:34:29.708Z,3.33
2022-08-22T12:36:20.212Z,3.00
2022-08-22T12:38:00.777Z,3.00
2022-08-22T12:40:04.068Z,2.70
2022-08-22T12:42:00.623Z,3.27
2022-08-22T12:43:49.466Z,3.27
2022-08-22T12:45:40.530Z,2.83
2022-08-22T12:47:55.370Z,2.97
2022-08-22T12:49:49.978Z,2.60
2022-08-22T12:51:32.689Z,2.93
2022-08-22T12:53:33.285Z,2.47
2022-08-22T12:55:25.055Z,2.57
2022-08-22T12:57:37.100Z,2.77
2022-08-22T12:59:31.981Z,2.40
2022-08-22T13:01:08.755Z,2.20
2022-08-22T13:02:41.644Z,2.57
2022-08-22T13:04:33.624Z,2.30
2022-08-22T13:06:37.859Z,2.80
2022-08-22T13:08:17.592Z,2.70
2022-08-22T13:09:55.531Z,2.80
2022-08-22T13:11:28.627Z,2.40
2022-08-22T13:13:03.948Z,2.43
2022-08-22T13:14:47.995Z,2.30
2022-08-22T13:16:22.289Z,2.97
2022-08-22T13:18:04.797Z,2.83
2022-08-22T13:20:09.651Z,2.40
2022-08-22T13:22:02.320Z,2.40
2022-08-22T13:23:46.873Z,2.83
2022-08-22T13:25:25.594Z,2.77
2022-08-22T13:27:05.785Z,2.83
2022-08-22T13:28:44.588Z,2.83
2022-08-22T13:30:38.428Z,3.03
2022-08-22T13:32:37.103Z,3.03
2022-08-22T13:34:12.201Z,3.37
2022-08-22T13:35:52.308Z,2.13
2022-08-22T13:37:36.676Z,3.27
2022-08-22T13:39:17.256Z,2.50
2022-08-22T13:40:52.823Z,3.00
2022-08-22T13:42:30.152Z,2.90
2022-08-22T13:44:08.676Z,2.70
2022-08-22T13:45:50.022Z,2.80
2022-08-22T13:47:26.192Z,2.70
2022-08-22T13:49:09.870Z,2.57
2022-08-22T13:50:55.319Z,3.10
2022-08-22T13:52:32.989Z,3.03
2022-08-22T13:54:15.944Z,2.67
2022-08-22T13:55:58.689Z,2.47
2022-08-22T13:57:31.648Z,3.03
2022-08-22T13:59:07.164Z,2.57
2022-08-22T14:01:02.888Z,2.80
2022-08-22T14:03:08.083Z,2.60
2022-08-22T14:04:42.881Z,2.70
2022-08-22T14:06:41.465Z,2.80
2022-08-22T14:08:18.716Z,2.70
2022-08-22T14:10:14.819Z,2.90
2022-08-22T14:11:53.800Z,2.60
2022-08-22T14:13:25.576Z,3.00
2022-08-22T14:15:03.546Z,2.37
2022-08-22T14:16:47.676Z,2.70
2022-08-22T14:18:45.458Z,2.87
2022-08-22T14:20:32.207Z,2.33
2022-08-22T14:22:09.557Z,2.80
2022-08-22T14:23:56.425Z,2.83
2022-08-22T14:25:35.955Z,2.50
2022-08-22T14:27:14.515Z,2.50
2022-08-22T14:28:46.447Z,2.40
2022-08-22T14:30:24.497Z,2.50
2022-08-22T14:32:08.831Z,2.93
2022-08-22T14:33:52.418Z,2.27
2022-08-22T14:35:34.714Z,2.67
2022-08-22T14:37:22.097Z,2.53
2022-08-22T14:39:11.721Z,2.33
2022-08-22T14:40:45.790Z,2.47
2022-08-22T14:42:23.046Z,2.60
2022-08-22T14:44:06.802Z,2.70
2022-08-22T14:45:43.758Z,2.50
2022-08-22T14:47:54.552Z,2.70
2022-08-22T14:49:28.798Z,2.97
2022-08-22T14:51:16.841Z,2.73
2022-08-22T14:53:07.108Z,2.83
2022-08-22T14:54:40.014Z,2.43
2022-08-22T14:56:27.747Z,2.47
2022-08-22T14:58:05.934Z,2.60
2022-08-22T14:59:43.963Z,2.67
2022-08-22T15:01:19.401Z,2.50
2022-08-22T15:03:05.234Z,2.80
2022-08-22T15:04:41.457Z,2.40
2022-08-22T15:06:50.651Z,2.30
2022-08-22T15:08:46.428Z,2.33
2022-08-22T15:10:25.561Z,2.73
2022-08-22T15:11:58.070Z,2.43
2022-08-22T15:13:34.864Z,2.60
2022-08-22T15:15:15.018Z,2.37
2022-08-22T15:16:58.574Z,3.23
2022-08-22T15:18:30.310Z,2.50
2022-08-22T15:20:15.904Z,2.63
2022-08-22T15:21:48.267Z,2.43
2022-08-22T15:23:23.234Z,2.20
2022-08-22T15:25:08.473Z,2.70
2022-08-22T15:26:55.288Z,2.60
2022-08-22T15:28:29.563Z,2.70
2022-08-22T15:30:20.944Z,2.50
2022-08-22T15:31:57.137Z,2.70
2022-08-22T15:33:40.556Z,3.10
2022-08-22T15:35:27.615Z,2.40
2022-08-22T15:37:01.755Z,2.70
2022-08-22T15:38:44.422Z,2.30
2022-08-22T15:40:40.749Z,2.30
2022-08-22T15:42:26.014Z,2.53
2022-08-22T15:44:17.218Z,2.60
2022-08-22T15:46:30.540Z,2.60
2022-08-22T15:48:11.574Z,2.77
2022-08-22T15:49:56.404Z,3.50
2022-08-22T15:51:39.620Z,2.60
2022-08-22T15:53:24.962Z,2.73
2022-08-22T15:55:06.706Z,2.60
2022-08-22T15:57:13.176Z,2.40
2022-08-22T15:58:49.594Z,2.60
2022-08-22T16:00:30.893Z,2.50
2022-08-22T16:02:20.858Z,2.67
2022-08-22T16:03:56.282Z,2.40
2022-08-22T16:05:33.939Z,2.60
2022-08-22T16:07:26.322Z,2.80
2022-08-22T16:08:58.423Z,2.63
2022-08-22T16:10:36.983Z,2.80
2022-08-22T16:12:33.387Z,2.43
2022-08-22T16:14:37.382Z,2.37
2022-08-22T16:16:44.135Z,2.30
2022-08-22T16:18:34.409Z,2.30
2022-08-22T16:20:09.911Z,2.53
2022-08-22T16:21:51.499Z,2.67
2022-08-22T16:23:23.362Z,2.37
2022-08-22T16:24:58.935Z,2.60
2022-08-22T16:26:30.890Z,2.83
2022-08-22T16:28:02.802Z,2.43
2022-08-22T16:29:41.425Z,2.33
2022-08-22T16:31:18.893Z,2.63
2022-08-22T16:32:53.427Z,2.30
2022-08-22T16:34:26.426Z,2.40
2022-08-22T16:36:16.659Z,2.50
2022-08-22T16:37:50.237Z,2.33
2022-08-22T16:39:21.945Z,2.77
2022-08-22T16:40:53.930Z,2.57
2022-08-22T16:43:16.398Z,2.10
2022-08-22T16:45:18.288Z,2.50
2022-08-22T16:46:55.274Z,2.93
2022-08-22T16:48:35.373Z,2.70
2022-08-22T16:50:16.144Z,2.90
2022-08-22T16:52:28.383Z,3.10
2022-08-22T16:54:13.151Z,2.60
2022-08-22T16:56:05.252Z,2.40
2022-08-22T16:57:37.106Z,2.40
2022-08-22T16:59:23.519Z,2.87
2022-08-22T17:01:22.407Z,2.40
2022-08-22T17:03:22.849Z,2.30
2022-08-22T17:05:30.283Z,2.80
2022-08-22T17:07:22.983Z,2.37
2022-08-22T17:09:14.488Z,2.33
2022-08-22T17:11:22.119Z,2.20
2022-08-22T17:13:06.227Z,2.70
2022-08-22T17:14:53.723Z,2.47
2022-08-22T17:16:39.150Z,2.20
2022-08-22T17:18:41.149Z,2.50
2022-08-22T17:20:31.524Z,2.67
2022-08-22T17:22:16.584Z,2.63
2022-08-22T17:24:11.672Z,2.27
2022-08-22T17:26:02.320Z,2.00
2022-08-22T17:27:39.484Z,2.40
2022-08-22T17:29:29.286Z,2.77
2022-08-22T17:31:06.398Z,2.17
2022-08-22T17:33:19.762Z,2.60
2022-08-22T17:35:13.950Z,2.50
2022-08-22T17:37:17.946Z,2.20
2022-08-22T17:39:36.038Z,2.80
2022-08-22T17:41:46.286Z,2.50
2022-08-22T17:43:48.664Z,2.67
2022-08-22T17:45:31.788Z,2.37
2022-08-22T17:47:08.545Z,2.30
2022-08-22T17:48:55.470Z,2.30
2022-08-22T17:50:52.776Z,2.47
2022-08-22T17:52:33.695Z,2.20
2022-08-22T17:54:36.728Z,2.30
2022-08-22T17:56:39.018Z,2.37
2022-08-22T17:58:37.722Z,2.20
2022-08-22T18:00:17.240Z,2.40
2022-08-22T18:02:09.216Z,2.20
2022-08-22T18:03:57.270Z,2.20
2022-08-22T18:05:37.781Z,2.90
2022-08-22T18:07:23.399Z,2.40
2022-08-22T18:09:17.274Z,2.23
2022-08-22T18:11:08.861Z,2.63
2022-08-22T18:12:51.779Z,2.87
2022-08-22T18:14:48.513Z,2.87
2022-08-22T18:16:37.373Z,2.27
2022-08-22T18:18:27.013Z,2.47
2022-08-22T18:20:26.987Z,2.30
2022-08-22T18:22:21.809Z,2.40
2022-08-22T18:24:00.854Z,2.40
2022-08-22T18:25:41.558Z,2.37
2022-08-22T18:27:35.659Z,2.37
2022-08-22T18:29:07.484Z,2.20
2022-08-22T18:30:55.585Z,2.43
2022-08-22T18:32:34.259Z,2.30
2022-08-22T18:34:31.748Z,2.40
2022-08-22T18:36:21.197Z,2.83
2022-08-22T18:38:25.699Z,2.80
2022-08-22T18:40:01.197Z,2.10
2022-08-22T18:41:54.958Z,2.67
2022-08-22T18:43:40.445Z,2.20
2022-08-22T18:45:44.277Z,2.40
2022-08-22T18:47:26.826Z,2.10
2022-08-22T18:49:17.535Z,2.57
2022-08-22T18:50:49.703Z,2.03
2022-08-22T18:52:33.653Z,2.20
2022-08-22T18:54:05.344Z,2.40
2022-08-22T18:55:48.899Z,2.10
2022-08-22T18:57:32.482Z,2.20
2022-08-22T18:59:29.364Z,2.13
2022-08-22T19:01:19.515Z,2.40
2022-08-22T19:03:16.312Z,2.13
2022-08-22T19:05:25.717Z,2.30
2022-08-22T19:07:19.363Z,2.60
2022-08-22T19:09:08.614Z,2.20
2022-08-22T19:10:47.563Z,2.47
2022-08-22T19:12:25.676Z,2.50
2022-08-22T19:14:35.161Z,2.17
2022-08-22T19:16:25.584Z,2.30
2022-08-22T19:18:18.856Z,2.53
2022-08-22T19:20:26.351Z,1.80
2022-08-22T19:22:20.399Z,2.40
2022-08-22T19:23:53.356Z,2.13
2022-08-22T19:25:27.646Z,2.67
2022-08-22T19:27:24.599Z,2.20
2022-08-22T19:29:01.538Z,2.20
2022-08-22T19:30:46.566Z,2.00
2022-08-22T19:32:44.424Z,2.37
2022-08-22T19:34:33.070Z,2.53
2022-08-22T19:36:12.246Z,2.47
2022-08-22T19:38:05.916Z,2.57
2022-08-22T19:39:40.585Z,2.00
2022-08-22T19:41:47.892Z,2.50
2022-08-22T19:43:30.010Z,2.33
2022-08-22T19:45:20.136Z,2.50
2022-08-22T19:47:26.791Z,2.20
2022-08-22T19:48:58.593Z,2.33
2022-08-22T19:50:36.339Z,3.23
2022-08-22T19:52:29.984Z,2.60
2022-08-22T19:54:01.644Z,1.90
2022-08-22T19:55:39.183Z,2.17
2022-08-22T19:57:25.553Z,2.43
2022-08-22T19:59:51.039Z,2.20
2022-08-22T20:02:10.824Z,2.37
2022-08-22T20:03:48.947Z,2.60
2022-08-22T20:05:35.854Z,2.60
2022-08-22T20:07:26.488Z,2.17
2022-08-22T20:09:16.516Z,2.47
2022-08-22T20:11:18.605Z,2.60
2022-08-22T20:13:07.755Z,2.60
2022-08-22T20:14:42.185Z,2.67
2022-08-22T20:16:21.142Z,2.17
2022-08-22T20:21:53.850Z,2.00
2022-08-22T20:23:30.209Z,2.57
2022-08-22T20:25:16.991Z,3.10
2022-08-22T20:27:31.880Z,2.47
2022-08-22T20:29:08.049Z,2.67
2022-08-22T20:30:46.676Z,2.77
2022-08-22T20:32:21.227Z,2.53
2022-08-22T20:34:00.376Z,2.83
2022-08-22T20:35:58.943Z,3.53
2022-08-22T20:38:04.797Z,2.93
2022-08-22T20:39:40.003Z,2.27
2022-08-22T20:41:22.849Z,2.47
2022-08-22T20:42:59.989Z,2.70
2022-08-22T20:44:44.123Z,2.57
2022-08-22T20:46:24.507Z,2.33
2022-08-22T20:47:56.380Z,2.27
2022-08-22T20:49:37.833Z,2.10
2022-08-22T20:51:15.392Z,2.57
2022-08-22T20:52:51.817Z,3.57
2022-08-22T20:54:29.714Z,2.67
2022-08-22T20:56:01.544Z,2.17
2022-08-22T20:57:44.523Z,2.50
2022-08-22T20:59:23.135Z,2.97
2022-08-22T21:01:00.039Z,2.30
2022-08-22T21:03:04.279Z,2.30
2022-08-22T21:04:51.213Z,2.30
2022-08-22T21:06:34.863Z,2.90
2022-08-22T21:08:09.350Z,2.30
2022-08-22T21:09:59.717Z,2.50
2022-08-22T21:11:40.805Z,2.37
2022-08-22T21:13:20.413Z,2.80
2022-08-22T21:14:52.242Z,2.90
2022-08-22T21:16:32.821Z,2.97
2022-08-22T21:18:05.389Z,2.83
2022-08-22T21:19:37.117Z,2.20
2022-08-22T21:21:16.951Z,2.27
2022-08-22T21:22:50.367Z,2.13
2022-08-22T21:24:22.133Z,2.60
2022-08-22T21:26:09.890Z,2.50
2022-08-22T21:27:46.515Z,2.87
2022-08-22T21:29:22.274Z,2.33
2022-08-22T21:30:54.010Z,2.27
2022-08-22T21:32:38.104Z,2.00
2022-08-22T21:34:19.549Z,2.57
2022-08-22T21:35:57.119Z,2.53
2022-08-22T21:37:36.590Z,2.40
2022-08-22T21:39:20.766Z,2.40
2022-08-22T21:40:52.825Z,2.33
2022-08-22T21:42:32.957Z,2.33
2022-08-22T21:44:30.423Z,2.57
2022-08-22T21:46:03.081Z,2.57
2022-08-22T21:47:38.935Z,2.30
2022-08-22T21:49:22.388Z,2.80
2022-08-22T21:50:54.497Z,2.70
2022-08-22T21:52:27.963Z,2.30
2022-08-22T21:54:19.492Z,2.70
2022-08-22T21:56:11.899Z,2.50
2022-08-22T21:57:44.143Z,2.50
2022-08-22T21:59:51.704Z,2.27
2022-08-22T22:01:32.673Z,2.70
2022-08-22T22:03:04.365Z,2.20
2022-08-22T22:04:39.103Z,2.50
2022-08-22T22:06:10.870Z,1.90
2022-08-22T22:07:45.766Z,2.70
2022-08-22T22:09:17.559Z,2.60
2022-08-22T22:10:50.527Z,2.70
2022-08-22T22:12:23.750Z,2.80
2022-08-22T22:13:55.556Z,2.93
2022-08-22T22:15:31.718Z,2.40
2022-08-22T22:17:03.499Z,2.70
2022-08-22T22:18:37.221Z,2.60
2022-08-22T22:20:09.450Z,2.73
2022-08-22T22:21:41.147Z,2.90
2022-08-22T22:23:13.022Z,2.50
2022-08-22T22:24:44.740Z,2.73
2022-08-22T22:26:16.679Z,2.70
2022-08-22T22:27:49.154Z,3.20
2022-08-22T22:29:21.335Z,2.40
2022-08-22T22:30:53.349Z,2.63
2022-08-22T22:32:25.178Z,2.83
2022-08-22T22:33:56.935Z,3.10
2022-08-22T22:35:28.743Z,3.37
2022-08-22T22:37:00.743Z,2.77
2022-08-22T22:38:32.655Z,2.60
2022-08-22T22:40:08.033Z,2.43
2022-08-22T22:41:39.794Z,2.60
2022-08-22T22:43:12.013Z,2.50
2022-08-22T22:44:47.448Z,3.10
2022-08-22T22:46:21.257Z,2.70
2022-08-22T22:47:52.975Z,2.13
2022-08-22T22:49:24.884Z,2.57
2022-08-22T22:50:56.768Z,2.70
2022-08-22T22:52:28.523Z,3.40
2022-08-22T22:54:00.283Z,2.70
2022-08-22T22:55:32.759Z,2.50
2022-08-22T22:57:04.491Z,2.70
2022-08-22T22:58:45.087Z,2.50
2022-08-22T23:00:18.071Z,2.57
2022-08-22T23:02:01.723Z,3.27
2022-08-22T23:03:33.536Z,2.77
2022-08-22T23:05:06.411Z,2.57
2022-08-22T23:06:38.107Z,2.90
2022-08-22T23:08:09.834Z,3.40
2022-08-22T23:09:44.710Z,2.47
2022-08-22T23:11:23.324Z,2.57
2022-08-22T23:12:55.227Z,2.50
2022-08-22T23:14:27.032Z,2.90
2022-08-22T23:15:58.758Z,2.70
2022-08-22T23:17:30.523Z,3.00
2022-08-22T23:19:08.111Z,2.23
2022-08-22T23:20:39.804Z,2.50
2022-08-22T23:22:11.744Z,2.20
2022-08-22T23:23:44.626Z,2.50
2022-08-22T23:25:16.384Z,2.50
2022-08-22T23:26:48.072Z,3.17
2022-08-22T23:28:19.853Z,2.97
2022-08-22T23:29:51.923Z,2.50
2022-08-22T23:31:31.499Z,2.70
2022-08-22T23:33:03.211Z,2.90
2022-08-22T23:34:38.978Z,2.70
2022-08-22T23:36:16.411Z,2.80